Fort Wayne, IN (46802)

7:55 PM EST on February 09, 2016 (GMT -0500)
Hillegas Road, Ft.Wayne, IN | | Change Station
CLOSE
Current Station
Personal Weather Station
Location: Fort Wayne, IN
Elevation: 823 ft
Nearby Weather Stations

Elev 823 ft 41.10 °N, 85.19 °W | Updated 6 minutes ago

Snow
Snow
20.1 °F
Feels Like 11 °F
N
6.8
Wind Variable Wind from West

Today
High -- | Low -- °F
--% Chance of Precip.
Yesterday
High -- | Low -- °F
Precip. -- in
Pressure 29.86 in
Visibility 9.0 miles
Clouds Few 1800 ft
Scattered Clouds 2600 ft
Overcast 4200 ft
Windchill 11 °F
Dew Point 18 °F
Humidity 90%
Rainfall 0.00 in
Snow Depth Not available.
7:43 AM 6:06 PM
Waxing Crescent, 3% visible
METAR KFWA 092354Z 28014KT 9SM -SN FEW018 SCT026 OVC042 M06/M08 A2983 RMK AO2 SLP112 P0000 60000 T10611083 10022 21061 53021
Pressure 29.86 in
Visibility 9.0 miles
Clouds Few 1800 ft
Scattered Clouds 2600 ft
Overcast 4200 ft
Windchill 11 °F
Dew Point 18 °F
Humidity 90%
Rainfall 0.00 in
Snow Depth Not available.
7:43 AM 6:06 PM
Waxing Crescent, 3% visible
METAR KFWA 092354Z 28014KT 9SM -SN FEW018 SCT026 OVC042 M06/M08 A2983 RMK AO2 SLP112 P0000 60000 T10611083 10022 21061 53021

10-Day Weather Forecast

Almanac

Astronomy

Feb. 09, 2016 Rise Set
Actual Time
Civil Twilight
Nautical Twilight
Astronomical Twilight
Moon
Length of Visible Light
Length of Day
Tomorrow will be .
, % of the Moon is Illuminated

Today's Extremes

State Highs State Lows

Community

WunderPhotos

Upload Photos

1,891,752 photos uploaded!

WunderBlog® & News

Nearby

Air Quality

  Air Quality AQ Index Pollutant
Not available.

Snow Depth

Station Depth Elevation

Earthquake Activity

City Distance Mag. Time & Date
Minimum magnitude displayed is 2.5.

Coastal Water Temperatures

Place Temperature

Stations

Nearby Weather Stations

Station Location Temp. Windchill Dew Point Humidity Wind Precip. Elev Updated Type
                   

Watches & Warnings

There are currently no watches in effect.